sensor_id;sensor_type;location;lat;lon;timestamp;P1;durP1;ratioP1;P2;durP2;ratioP2
20004;SDS011;69160;45.498;-73.582;2023-06-26T00:02:03;112.70;;;81.77;;
20004;SDS011;69160;45.498;-73.582;2023-06-26T00:04:29;117.47;;;81.50;;
20004;SDS011;69160;45.498;-73.582;2023-06-26T00:06:55;113.13;;;83.93;;
20004;SDS011;69160;45.498;-73.582;2023-06-26T00:09:21;113.27;;;83.17;;
20004;SDS011;69160;45.498;-73.582;2023-06-26T00:11:48;119.43;;;83.73;;
20004;SDS011;69160;45.498;-73.582;2023-06-26T00:14:14;108.10;;;81.03;;
20004;SDS011;69160;45.498;-73.582;2023-06-26T00:16:40;107.13;;;80.20;;
20004;SDS011;69160;45.498;-73.582;2023-06-26T00:19:07;105.30;;;81.47;;
20004;SDS011;69160;45.498;-73.582;2023-06-26T00:21:33;109.00;;;80.60;;
20004;SDS011;69160;45.498;-73.582;2023-06-26T00:23:59;114.27;;;84.90;;
20004;SDS011;69160;45.498;-73.582;2023-06-26T00:26:26;106.07;;;81.03;;
20004;SDS011;69160;45.498;-73.582;2023-06-26T00:28:52;109.37;;;82.30;;
20004;SDS011;69160;45.498;-73.582;2023-06-26T00:31:18;101.30;;;79.60;;
20004;SDS011;69160;45.498;-73.582;2023-06-26T00:33:44;111.53;;;83.37;;
20004;SDS011;69160;45.498;-73.582;2023-06-26T00:36:10;109.30;;;80.17;;
20004;SDS011;69160;45.498;-73.582;2023-06-26T00:38:36;113.70;;;80.77;;
20004;SDS011;69160;45.498;-73.582;2023-06-26T00:41:02;109.00;;;82.63;;
20004;SDS011;69160;45.498;-73.582;2023-06-26T00:43:30;103.40;;;80.10;;
20004;SDS011;69160;45.498;-73.582;2023-06-26T00:45:56;108.90;;;80.70;;
20004;SDS011;69160;45.498;-73.582;2023-06-26T00:48:22;113.73;;;80.80;;
20004;SDS011;69160;45.498;-73.582;2023-06-26T00:50:48;103.10;;;80.37;;
20004;SDS011;69160;45.498;-73.582;2023-06-26T00:53:15;115.90;;;82.70;;
20004;SDS011;69160;45.498;-73.582;2023-06-26T00:55:41;107.50;;;82.40;;
20004;SDS011;69160;45.498;-73.582;2023-06-26T00:58:07;108.53;;;82.17;;
20004;SDS011;69160;45.498;-73.582;2023-06-26T01:00:33;107.37;;;82.30;;
20004;SDS011;69160;45.498;-73.582;2023-06-26T01:02:59;102.53;;;79.97;;
20004;SDS011;69160;45.498;-73.582;2023-06-26T01:05:26;114.00;;;84.60;;
20004;SDS011;69160;45.498;-73.582;2023-06-26T01:07:53;100.90;;;77.67;;
20004;SDS011;69160;45.498;-73.582;2023-06-26T01:10:20;112.13;;;80.27;;
20004;SDS011;69160;45.498;-73.582;2023-06-26T01:12:46;113.03;;;84.03;;
20004;SDS011;69160;45.498;-73.582;2023-06-26T01:15:12;116.77;;;83.20;;
20004;SDS011;69160;45.498;-73.582;2023-06-26T01:17:38;117.30;;;83.53;;
20004;SDS011;69160;45.498;-73.582;2023-06-26T01:20:05;109.30;;;82.87;;
20004;SDS011;69160;45.498;-73.582;2023-06-26T01:22:39;110.53;;;83.30;;
20004;SDS011;69160;45.498;-73.582;2023-06-26T01:28:04;105.50;;;79.40;;
20004;SDS011;69160;45.498;-73.582;2023-06-26T01:30:35;115.90;;;86.47;;
20004;SDS011;69160;45.498;-73.582;2023-06-26T01:33:05;116.77;;;86.60;;
20004;SDS011;69160;45.498;-73.582;2023-06-26T01:35:31;118.53;;;84.33;;
20004;SDS011;69160;45.498;-73.582;2023-06-26T01:38:17;108.53;;;81.80;;
20004;SDS011;69160;45.498;-73.582;2023-06-26T01:40:45;107.13;;;82.97;;
20004;SDS011;69160;45.498;-73.582;2023-06-26T01:43:57;110.13;;;83.37;;
20004;SDS011;69160;45.498;-73.582;2023-06-26T01:46:25;115.77;;;86.57;;
20004;SDS011;69160;45.498;-73.582;2023-06-26T01:48:59;112.97;;;87.53;;
20004;SDS011;69160;45.498;-73.582;2023-06-26T01:51:40;137.43;;;98.57;;
20004;SDS011;69160;45.498;-73.582;2023-06-26T01:54:13;125.20;;;96.07;;
20004;SDS011;69160;45.498;-73.582;2023-06-26T01:56:44;135.70;;;95.90;;
20004;SDS011;69160;45.498;-73.582;2023-06-26T01:59:13;127.03;;;94.60;;
20004;SDS011;69160;45.498;-73.582;2023-06-26T02:01:40;119.53;;;93.90;;
20004;SDS011;69160;45.498;-73.582;2023-06-26T02:04:06;119.67;;;93.90;;
20004;SDS011;69160;45.498;-73.582;2023-06-26T02:06:32;123.60;;;97.23;;
20004;SDS011;69160;45.498;-73.582;2023-06-26T02:08:58;124.87;;;98.27;;
20004;SDS011;69160;45.498;-73.582;2023-06-26T02:11:25;136.33;;;105.53;;
20004;SDS011;69160;45.498;-73.582;2023-06-26T02:13:51;147.47;;;115.73;;
20004;SDS011;69160;45.498;-73.582;2023-06-26T02:16:17;128.10;;;100.00;;
20004;SDS011;69160;45.498;-73.582;2023-06-26T02:18:44;131.00;;;101.70;;
20004;SDS011;69160;45.498;-73.582;2023-06-26T02:21:10;125.70;;;102.40;;
20004;SDS011;69160;45.498;-73.582;2023-06-26T02:23:37;138.97;;;105.40;;
20004;SDS011;69160;45.498;-73.582;2023-06-26T02:26:03;134.17;;;108.70;;
20004;SDS011;69160;45.498;-73.582;2023-06-26T02:28:29;140.77;;;110.30;;
20004;SDS011;69160;45.498;-73.582;2023-06-26T02:30:56;135.57;;;105.57;;
20004;SDS011;69160;45.498;-73.582;2023-06-26T02:33:22;135.30;;;105.60;;
20004;SDS011;69160;45.498;-73.582;2023-06-26T02:35:48;135.53;;;107.20;;
20004;SDS011;69160;45.498;-73.582;2023-06-26T02:38:15;157.90;;;126.17;;
20004;SDS011;69160;45.498;-73.582;2023-06-26T02:40:42;144.60;;;114.00;;
20004;SDS011;69160;45.498;-73.582;2023-06-26T02:43:08;140.40;;;108.60;;
20004;SDS011;69160;45.498;-73.582;2023-06-26T02:45:34;129.00;;;99.90;;
20004;SDS011;69160;45.498;-73.582;2023-06-26T02:48:00;129.50;;;98.87;;
20004;SDS011;69160;45.498;-73.582;2023-06-26T02:50:26;125.13;;;92.10;;
20004;SDS011;69160;45.498;-73.582;2023-06-26T02:52:52;120.80;;;91.60;;
20004;SDS011;69160;45.498;-73.582;2023-06-26T02:55:19;112.33;;;89.13;;
20004;SDS011;69160;45.498;-73.582;2023-06-26T02:57:46;112.93;;;86.13;;
20004;SDS011;69160;45.498;-73.582;2023-06-26T03:00:12;110.93;;;87.43;;
20004;SDS011;69160;45.498;-73.582;2023-06-26T03:02:39;106.73;;;87.07;;
20004;SDS011;69160;45.498;-73.582;2023-06-26T03:05:05;114.33;;;90.20;;
20004;SDS011;69160;45.498;-73.582;2023-06-26T03:07:31;114.53;;;85.87;;
20004;SDS011;69160;45.498;-73.582;2023-06-26T03:09:57;111.97;;;84.07;;
20004;SDS011;69160;45.498;-73.582;2023-06-26T03:12:25;110.07;;;87.27;;
20004;SDS011;69160;45.498;-73.582;2023-06-26T03:14:51;113.00;;;87.00;;
20004;SDS011;69160;45.498;-73.582;2023-06-26T03:17:17;113.80;;;87.37;;
20004;SDS011;69160;45.498;-73.582;2023-06-26T03:19:43;111.87;;;86.97;;
20004;SDS011;69160;45.498;-73.582;2023-06-26T03:22:10;114.43;;;85.13;;
20004;SDS011;69160;45.498;-73.582;2023-06-26T03:24:36;117.40;;;87.90;;
20004;SDS011;69160;45.498;-73.582;2023-06-26T03:27:02;112.30;;;87.23;;
20004;SDS011;69160;45.498;-73.582;2023-06-26T03:29:28;117.47;;;88.23;;
20004;SDS011;69160;45.498;-73.582;2023-06-26T03:31:55;111.73;;;87.27;;
20004;SDS011;69160;45.498;-73.582;2023-06-26T03:34:21;114.37;;;93.33;;
20004;SDS011;69160;45.498;-73.582;2023-06-26T03:36:47;107.17;;;86.37;;
20004;SDS011;69160;45.498;-73.582;2023-06-26T03:39:14;111.63;;;88.53;;
20004;SDS011;69160;45.498;-73.582;2023-06-26T03:41:40;115.13;;;88.87;;
20004;SDS011;69160;45.498;-73.582;2023-06-26T03:44:06;121.00;;;91.60;;
20004;SDS011;69160;45.498;-73.582;2023-06-26T03:46:32;116.87;;;91.27;;
20004;SDS011;69160;45.498;-73.582;2023-06-26T03:48:58;115.90;;;89.20;;
20004;SDS011;69160;45.498;-73.582;2023-06-26T03:51:24;115.50;;;90.70;;
20004;SDS011;69160;45.498;-73.582;2023-06-26T03:53:50;113.13;;;88.60;;
20004;SDS011;69160;45.498;-73.582;2023-06-26T03:56:16;113.90;;;89.10;;
20004;SDS011;69160;45.498;-73.582;2023-06-26T03:58:42;119.30;;;92.77;;
20004;SDS011;69160;45.498;-73.582;2023-06-26T04:01:09;103.10;;;81.80;;
20004;SDS011;69160;45.498;-73.582;2023-06-26T04:03:35;109.43;;;86.70;;
20004;SDS011;69160;45.498;-73.582;2023-06-26T04:06:01;102.60;;;80.50;;
20004;SDS011;69160;45.498;-73.582;2023-06-26T04:08:27;103.47;;;83.40;;
20004;SDS011;69160;45.498;-73.582;2023-06-26T04:10:53;101.80;;;78.90;;
20004;SDS011;69160;45.498;-73.582;2023-06-26T04:13:22;102.33;;;78.00;;
20004;SDS011;69160;45.498;-73.582;2023-06-26T04:15:48;104.00;;;79.07;;
20004;SDS011;69160;45.498;-73.582;2023-06-26T04:18:14;102.47;;;78.47;;
20004;SDS011;69160;45.498;-73.582;2023-06-26T04:20:41;103.83;;;80.93;;
20004;SDS011;69160;45.498;-73.582;2023-06-26T04:23:32;104.23;;;79.47;;
20004;SDS011;69160;45.498;-73.582;2023-06-26T04:25:59;100.10;;;78.27;;
20004;SDS011;69160;45.498;-73.582;2023-06-26T04:28:25;97.93;;;76.10;;
20004;SDS011;69160;45.498;-73.582;2023-06-26T04:30:51;97.20;;;76.97;;
20004;SDS011;69160;45.498;-73.582;2023-06-26T04:33:18;98.73;;;77.03;;
20004;SDS011;69160;45.498;-73.582;2023-06-26T04:35:44;100.17;;;76.60;;
20004;SDS011;69160;45.498;-73.582;2023-06-26T04:38:14;102.57;;;78.83;;
20004;SDS011;69160;45.498;-73.582;2023-06-26T04:40:40;108.87;;;83.03;;
20004;SDS011;69160;45.498;-73.582;2023-06-26T04:43:06;101.03;;;81.30;;
20004;SDS011;69160;45.498;-73.582;2023-06-26T04:45:33;103.00;;;80.43;;
20004;SDS011;69160;45.498;-73.582;2023-06-26T04:47:59;104.80;;;79.93;;
20004;SDS011;69160;45.498;-73.582;2023-06-26T04:50:25;104.80;;;82.03;;
20004;SDS011;69160;45.498;-73.582;2023-06-26T04:52:54;101.70;;;76.93;;
20004;SDS011;69160;45.498;-73.582;2023-06-26T04:55:21;106.10;;;80.20;;
20004;SDS011;69160;45.498;-73.582;2023-06-26T04:57:49;105.10;;;80.00;;
20004;SDS011;69160;45.498;-73.582;2023-06-26T05:00:15;110.67;;;83.00;;
20004;SDS011;69160;45.498;-73.582;2023-06-26T05:02:42;106.80;;;82.77;;
20004;SDS011;69160;45.498;-73.582;2023-06-26T05:05:08;107.57;;;83.57;;
20004;SDS011;69160;45.498;-73.582;2023-06-26T05:07:35;114.37;;;84.47;;
20004;SDS011;69160;45.498;-73.582;2023-06-26T05:10:02;107.60;;;84.50;;
20004;SDS011;69160;45.498;-73.582;2023-06-26T05:12:28;117.90;;;86.30;;
20004;SDS011;69160;45.498;-73.582;2023-06-26T05:14:54;113.43;;;84.40;;
20004;SDS011;69160;45.498;-73.582;2023-06-26T05:17:20;107.90;;;83.80;;
20004;SDS011;69160;45.498;-73.582;2023-06-26T05:19:47;109.73;;;84.90;;
20004;SDS011;69160;45.498;-73.582;2023-06-26T05:22:13;112.83;;;84.10;;
20004;SDS011;69160;45.498;-73.582;2023-06-26T05:24:39;109.37;;;82.40;;
20004;SDS011;69160;45.498;-73.582;2023-06-26T05:27:06;111.27;;;86.97;;
20004;SDS011;69160;45.498;-73.582;2023-06-26T05:29:33;109.63;;;85.43;;
20004;SDS011;69160;45.498;-73.582;2023-06-26T05:31:59;119.07;;;87.90;;
20004;SDS011;69160;45.498;-73.582;2023-06-26T05:34:26;112.77;;;86.73;;
20004;SDS011;69160;45.498;-73.582;2023-06-26T05:36:57;117.00;;;85.37;;
20004;SDS011;69160;45.498;-73.582;2023-06-26T05:39:24;114.10;;;85.57;;
20004;SDS011;69160;45.498;-73.582;2023-06-26T05:41:51;116.27;;;90.00;;
20004;SDS011;69160;45.498;-73.582;2023-06-26T05:44:17;109.00;;;88.20;;
20004;SDS011;69160;45.498;-73.582;2023-06-26T05:46:43;108.27;;;85.57;;
20004;SDS011;69160;45.498;-73.582;2023-06-26T05:49:11;113.47;;;84.90;;
20004;SDS011;69160;45.498;-73.582;2023-06-26T05:51:37;107.83;;;84.20;;
20004;SDS011;69160;45.498;-73.582;2023-06-26T05:54:03;105.13;;;80.00;;
20004;SDS011;69160;45.498;-73.582;2023-06-26T05:56:30;108.23;;;82.47;;
20004;SDS011;69160;45.498;-73.582;2023-06-26T05:58:57;105.37;;;79.70;;
20004;SDS011;69160;45.498;-73.582;2023-06-26T06:01:24;104.93;;;77.97;;
20004;SDS011;69160;45.498;-73.582;2023-06-26T06:03:50;101.10;;;78.87;;
20004;SDS011;69160;45.498;-73.582;2023-06-26T06:06:16;99.67;;;74.47;;
20004;SDS011;69160;45.498;-73.582;2023-06-26T06:08:42;100.57;;;76.63;;
20004;SDS011;69160;45.498;-73.582;2023-06-26T06:11:08;99.20;;;79.80;;
20004;SDS011;69160;45.498;-73.582;2023-06-26T06:13:35;101.00;;;77.87;;
20004;SDS011;69160;45.498;-73.582;2023-06-26T06:16:01;102.83;;;78.70;;
20004;SDS011;69160;45.498;-73.582;2023-06-26T06:18:27;102.50;;;78.43;;
20004;SDS011;69160;45.498;-73.582;2023-06-26T06:20:53;100.87;;;78.27;;
20004;SDS011;69160;45.498;-73.582;2023-06-26T06:23:19;94.77;;;75.67;;
20004;SDS011;69160;45.498;-73.582;2023-06-26T06:25:45;98.47;;;77.10;;
20004;SDS011;69160;45.498;-73.582;2023-06-26T06:28:11;96.57;;;77.40;;
20004;SDS011;69160;45.498;-73.582;2023-06-26T06:30:41;103.23;;;79.70;;
20004;SDS011;69160;45.498;-73.582;2023-06-26T06:33:07;106.17;;;79.03;;
20004;SDS011;69160;45.498;-73.582;2023-06-26T06:35:33;106.93;;;82.60;;
20004;SDS011;69160;45.498;-73.582;2023-06-26T06:37:59;108.00;;;81.60;;
20004;SDS011;69160;45.498;-73.582;2023-06-26T06:40:25;104.53;;;80.60;;
20004;SDS011;69160;45.498;-73.582;2023-06-26T06:42:52;108.53;;;84.50;;
20004;SDS011;69160;45.498;-73.582;2023-06-26T06:45:18;106.73;;;82.37;;
20004;SDS011;69160;45.498;-73.582;2023-06-26T06:47:44;109.87;;;82.00;;
20004;SDS011;69160;45.498;-73.582;2023-06-26T06:50:10;106.67;;;80.60;;
20004;SDS011;69160;45.498;-73.582;2023-06-26T06:52:37;109.83;;;85.80;;
20004;SDS011;69160;45.498;-73.582;2023-06-26T06:55:05;107.53;;;84.00;;
20004;SDS011;69160;45.498;-73.582;2023-06-26T06:57:34;113.00;;;85.20;;
20004;SDS011;69160;45.498;-73.582;2023-06-26T07:00:09;109.20;;;85.90;;
20004;SDS011;69160;45.498;-73.582;2023-06-26T07:02:39;111.03;;;86.07;;
20004;SDS011;69160;45.498;-73.582;2023-06-26T07:05:07;112.40;;;86.30;;
20004;SDS011;69160;45.498;-73.582;2023-06-26T07:07:35;110.17;;;86.67;;
20004;SDS011;69160;45.498;-73.582;2023-06-26T07:10:09;112.50;;;85.87;;
20004;SDS011;69160;45.498;-73.582;2023-06-26T07:12:37;113.47;;;89.60;;
20004;SDS011;69160;45.498;-73.582;2023-06-26T07:15:04;121.90;;;90.83;;
20004;SDS011;69160;45.498;-73.582;2023-06-26T07:17:32;118.53;;;90.33;;
20004;SDS011;69160;45.498;-73.582;2023-06-26T07:19:59;113.33;;;89.73;;
20004;SDS011;69160;45.498;-73.582;2023-06-26T07:22:26;118.97;;;91.03;;
20004;SDS011;69160;45.498;-73.582;2023-06-26T07:24:52;112.93;;;85.80;;
20004;SDS011;69160;45.498;-73.582;2023-06-26T07:27:19;107.63;;;83.20;;
20004;SDS011;69160;45.498;-73.582;2023-06-26T07:29:46;100.83;;;79.20;;
20004;SDS011;69160;45.498;-73.582;2023-06-26T07:32:12;110.97;;;80.90;;
20004;SDS011;69160;45.498;-73.582;2023-06-26T07:34:38;101.87;;;81.40;;
20004;SDS011;69160;45.498;-73.582;2023-06-26T07:37:04;105.90;;;81.17;;
20004;SDS011;69160;45.498;-73.582;2023-06-26T07:39:30;107.90;;;81.80;;
20004;SDS011;69160;45.498;-73.582;2023-06-26T07:41:57;105.10;;;81.73;;
20004;SDS011;69160;45.498;-73.582;2023-06-26T07:44:26;109.53;;;82.53;;
20004;SDS011;69160;45.498;-73.582;2023-06-26T07:46:52;101.27;;;81.23;;
20004;SDS011;69160;45.498;-73.582;2023-06-26T07:49:18;107.10;;;83.43;;
20004;SDS011;69160;45.498;-73.582;2023-06-26T07:51:44;108.90;;;81.57;;
20004;SDS011;69160;45.498;-73.582;2023-06-26T07:54:10;106.00;;;80.07;;
20004;SDS011;69160;45.498;-73.582;2023-06-26T07:56:58;112.17;;;81.27;;
20004;SDS011;69160;45.498;-73.582;2023-06-26T07:59:26;107.40;;;83.20;;
20004;SDS011;69160;45.498;-73.582;2023-06-26T08:01:54;111.53;;;85.87;;
20004;SDS011;69160;45.498;-73.582;2023-06-26T08:04:22;111.60;;;87.20;;
20004;SDS011;69160;45.498;-73.582;2023-06-26T08:06:53;116.50;;;85.90;;
20004;SDS011;69160;45.498;-73.582;2023-06-26T08:09:21;115.73;;;87.80;;
20004;SDS011;69160;45.498;-73.582;2023-06-26T08:11:49;114.40;;;87.87;;
20004;SDS011;69160;45.498;-73.582;2023-06-26T08:14:16;123.00;;;89.50;;
20004;SDS011;69160;45.498;-73.582;2023-06-26T08:16:43;115.63;;;90.03;;
20004;SDS011;69160;45.498;-73.582;2023-06-26T08:19:09;118.30;;;92.23;;
20004;SDS011;69160;45.498;-73.582;2023-06-26T08:21:40;126.83;;;90.30;;
20004;SDS011;69160;45.498;-73.582;2023-06-26T08:24:06;117.97;;;89.50;;
20004;SDS011;69160;45.498;-73.582;2023-06-26T08:26:33;121.50;;;90.60;;
20004;SDS011;69160;45.498;-73.582;2023-06-26T08:29:00;115.83;;;90.00;;
20004;SDS011;69160;45.498;-73.582;2023-06-26T08:31:33;121.20;;;92.47;;
20004;SDS011;69160;45.498;-73.582;2023-06-26T08:34:00;114.97;;;90.87;;
20004;SDS011;69160;45.498;-73.582;2023-06-26T08:36:27;117.80;;;90.50;;
20004;SDS011;69160;45.498;-73.582;2023-06-26T08:38:54;112.90;;;90.07;;
20004;SDS011;69160;45.498;-73.582;2023-06-26T08:41:20;120.87;;;90.67;;
20004;SDS011;69160;45.498;-73.582;2023-06-26T08:43:46;119.60;;;90.67;;
20004;SDS011;69160;45.498;-73.582;2023-06-26T08:46:13;116.70;;;91.30;;
20004;SDS011;69160;45.498;-73.582;2023-06-26T08:48:40;125.77;;;93.80;;
20004;SDS011;69160;45.498;-73.582;2023-06-26T08:51:11;119.27;;;93.10;;
20004;SDS011;69160;45.498;-73.582;2023-06-26T08:53:49;126.80;;;92.73;;
20004;SDS011;69160;45.498;-73.582;2023-06-26T08:56:24;111.50;;;87.23;;
20004;SDS011;69160;45.498;-73.582;2023-06-26T08:58:55;115.97;;;89.10;;
20004;SDS011;69160;45.498;-73.582;2023-06-26T09:01:21;109.47;;;82.73;;
20004;SDS011;69160;45.498;-73.582;2023-06-26T09:03:49;105.90;;;82.53;;
20004;SDS011;69160;45.498;-73.582;2023-06-26T09:06:16;104.07;;;78.43;;
20004;SDS011;69160;45.498;-73.582;2023-06-26T09:08:43;100.10;;;76.33;;
20004;SDS011;69160;45.498;-73.582;2023-06-26T09:11:10;98.37;;;76.00;;
20004;SDS011;69160;45.498;-73.582;2023-06-26T09:13:36;103.30;;;80.67;;
20004;SDS011;69160;45.498;-73.582;2023-06-26T09:16:06;104.07;;;79.83;;
20004;SDS011;69160;45.498;-73.582;2023-06-26T09:18:33;108.07;;;79.63;;
20004;SDS011;69160;45.498;-73.582;2023-06-26T09:21:00;101.73;;;79.00;;
20004;SDS011;69160;45.498;-73.582;2023-06-26T09:23:31;103.10;;;77.93;;
20004;SDS011;69160;45.498;-73.582;2023-06-26T09:25:57;103.50;;;78.50;;
20004;SDS011;69160;45.498;-73.582;2023-06-26T09:28:23;100.77;;;76.93;;
20004;SDS011;69160;45.498;-73.582;2023-06-26T09:30:50;96.33;;;72.97;;
20004;SDS011;69160;45.498;-73.582;2023-06-26T09:33:18;96.10;;;71.07;;
20004;SDS011;69160;45.498;-73.582;2023-06-26T09:35:45;99.63;;;76.80;;
20004;SDS011;69160;45.498;-73.582;2023-06-26T09:38:13;99.43;;;78.63;;
20004;SDS011;69160;45.498;-73.582;2023-06-26T09:40:40;103.07;;;78.90;;
20004;SDS011;69160;45.498;-73.582;2023-06-26T09:43:07;98.77;;;76.37;;
20004;SDS011;69160;45.498;-73.582;2023-06-26T09:45:35;104.63;;;78.27;;
20004;SDS011;69160;45.498;-73.582;2023-06-26T09:48:02;104.13;;;78.67;;
20004;SDS011;69160;45.498;-73.582;2023-06-26T09:50:29;101.77;;;75.80;;
20004;SDS011;69160;45.498;-73.582;2023-06-26T09:52:59;98.57;;;75.87;;
20004;SDS011;69160;45.498;-73.582;2023-06-26T09:55:36;102.07;;;77.60;;
20004;SDS011;69160;45.498;-73.582;2023-06-26T09:58:03;101.77;;;79.00;;
20004;SDS011;69160;45.498;-73.582;2023-06-26T10:00:30;96.80;;;73.40;;
20004;SDS011;69160;45.498;-73.582;2023-06-26T10:02:57;100.60;;;76.03;;
20004;SDS011;69160;45.498;-73.582;2023-06-26T10:05:27;100.77;;;77.70;;
20004;SDS011;69160;45.498;-73.582;2023-06-26T10:07:56;106.77;;;78.73;;
20004;SDS011;69160;45.498;-73.582;2023-06-26T10:10:22;97.13;;;75.40;;
20004;SDS011;69160;45.498;-73.582;2023-06-26T10:12:51;101.87;;;77.03;;
20004;SDS011;69160;45.498;-73.582;2023-06-26T10:15:20;99.43;;;74.87;;
20004;SDS011;69160;45.498;-73.582;2023-06-26T10:17:48;110.40;;;79.57;;
20004;SDS011;69160;45.498;-73.582;2023-06-26T10:20:15;102.60;;;78.27;;
20004;SDS011;69160;45.498;-73.582;2023-06-26T10:22:44;102.43;;;75.80;;
20004;SDS011;69160;45.498;-73.582;2023-06-26T10:25:12;99.73;;;75.43;;
20004;SDS011;69160;45.498;-73.582;2023-06-26T10:27:44;97.70;;;75.30;;
20004;SDS011;69160;45.498;-73.582;2023-06-26T10:30:16;104.23;;;77.77;;
20004;SDS011;69160;45.498;-73.582;2023-06-26T10:32:46;97.83;;;73.03;;
20004;SDS011;69160;45.498;-73.582;2023-06-26T10:35:13;89.70;;;69.67;;
20004;SDS011;69160;45.498;-73.582;2023-06-26T10:37:43;92.33;;;71.13;;
20004;SDS011;69160;45.498;-73.582;2023-06-26T10:40:11;86.97;;;66.63;;
20004;SDS011;69160;45.498;-73.582;2023-06-26T10:42:38;86.17;;;64.20;;
20004;SDS011;69160;45.498;-73.582;2023-06-26T10:45:15;91.83;;;66.67;;
20004;SDS011;69160;45.498;-73.582;2023-06-26T10:47:45;86.40;;;65.27;;
20004;SDS011;69160;45.498;-73.582;2023-06-26T10:53:07;83.50;;;64.13;;
20004;SDS011;69160;45.498;-73.582;2023-06-26T10:55:37;92.50;;;68.63;;
20004;SDS011;69160;45.498;-73.582;2023-06-26T10:58:29;88.97;;;66.93;;
20004;SDS011;69160;45.498;-73.582;2023-06-26T11:03:41;89.07;;;67.97;;
20004;SDS011;69160;45.498;-73.582;2023-06-26T11:06:26;83.50;;;64.67;;
20004;SDS011;69160;45.498;-73.582;2023-06-26T11:08:54;84.30;;;66.50;;
20004;SDS011;69160;45.498;-73.582;2023-06-26T11:12:10;95.00;;;68.90;;
20004;SDS011;69160;45.498;-73.582;2023-06-26T11:14:18;95.50;;;68.60;;
20004;SDS011;69160;45.498;-73.582;2023-06-26T11:16:45;86.67;;;66.43;;
20004;SDS011;69160;45.498;-73.582;2023-06-26T11:19:12;86.03;;;65.40;;
20004;SDS011;69160;45.498;-73.582;2023-06-26T11:21:39;83.77;;;63.40;;
20004;SDS011;69160;45.498;-73.582;2023-06-26T11:24:06;87.63;;;67.27;;
20004;SDS011;69160;45.498;-73.582;2023-06-26T11:26:42;88.00;;;65.43;;
20004;SDS011;69160;45.498;-73.582;2023-06-26T11:29:10;86.93;;;65.40;;
20004;SDS011;69160;45.498;-73.582;2023-06-26T11:31:37;89.37;;;66.77;;
20004;SDS011;69160;45.498;-73.582;2023-06-26T11:34:08;87.57;;;64.67;;
20004;SDS011;69160;45.498;-73.582;2023-06-26T11:36:37;92.70;;;65.43;;
20004;SDS011;69160;45.498;-73.582;2023-06-26T11:39:05;87.07;;;66.90;;
20004;SDS011;69160;45.498;-73.582;2023-06-26T11:41:32;90.17;;;67.63;;
20004;SDS011;69160;45.498;-73.582;2023-06-26T11:44:08;94.27;;;68.80;;
20004;SDS011;69160;45.498;-73.582;2023-06-26T11:46:35;93.60;;;66.73;;
20004;SDS011;69160;45.498;-73.582;2023-06-26T11:49:02;87.37;;;63.67;;
20004;SDS011;69160;45.498;-73.582;2023-06-26T11:51:29;81.67;;;60.40;;
20004;SDS011;69160;45.498;-73.582;2023-06-26T11:53:56;82.20;;;62.40;;
20004;SDS011;69160;45.498;-73.582;2023-06-26T11:56:22;77.63;;;59.17;;
20004;SDS011;69160;45.498;-73.582;2023-06-26T11:58:58;73.27;;;56.33;;
20004;SDS011;69160;45.498;-73.582;2023-06-26T12:01:35;78.63;;;56.27;;
20004;SDS011;69160;45.498;-73.582;2023-06-26T12:04:03;73.63;;;54.97;;
20004;SDS011;69160;45.498;-73.582;2023-06-26T12:06:31;84.40;;;58.17;;
20004;SDS011;69160;45.498;-73.582;2023-06-26T12:09:04;84.70;;;57.13;;
20004;SDS011;69160;45.498;-73.582;2023-06-26T12:11:34;77.60;;;57.30;;
20004;SDS011;69160;45.498;-73.582;2023-06-26T12:14:00;73.40;;;57.30;;
20004;SDS011;69160;45.498;-73.582;2023-06-26T12:16:27;82.47;;;57.43;;
20004;SDS011;69160;45.498;-73.582;2023-06-26T12:18:58;81.87;;;57.63;;
20004;SDS011;69160;45.498;-73.582;2023-06-26T12:24:06;84.00;;;57.93;;
20004;SDS011;69160;45.498;-73.582;2023-06-26T12:26:38;73.60;;;57.23;;
20004;SDS011;69160;45.498;-73.582;2023-06-26T12:29:12;78.20;;;56.03;;
20004;SDS011;69160;45.498;-73.582;2023-06-26T12:31:43;72.50;;;54.47;;
20004;SDS011;69160;45.498;-73.582;2023-06-26T12:34:11;75.80;;;57.13;;
20004;SDS011;69160;45.498;-73.582;2023-06-26T12:36:42;78.03;;;57.40;;
20004;SDS011;69160;45.498;-73.582;2023-06-26T12:39:15;71.83;;;55.97;;
20004;SDS011;69160;45.498;-73.582;2023-06-26T12:41:52;72.13;;;53.77;;
20004;SDS011;69160;45.498;-73.582;2023-06-26T12:46:54;66.77;;;51.73;;
20004;SDS011;69160;45.498;-73.582;2023-06-26T12:49:35;74.03;;;54.90;;
20004;SDS011;69160;45.498;-73.582;2023-06-26T12:52:11;71.23;;;53.83;;
20004;SDS011;69160;45.498;-73.582;2023-06-26T12:54:39;73.97;;;56.13;;
20004;SDS011;69160;45.498;-73.582;2023-06-26T12:57:07;84.47;;;57.07;;
20004;SDS011;69160;45.498;-73.582;2023-06-26T12:59:35;75.07;;;55.20;;
20004;SDS011;69160;45.498;-73.582;2023-06-26T13:02:01;76.13;;;55.83;;
20004;SDS011;69160;45.498;-73.582;2023-06-26T13:04:28;70.50;;;53.57;;
20004;SDS011;69160;45.498;-73.582;2023-06-26T13:06:55;73.67;;;53.73;;
20004;SDS011;69160;45.498;-73.582;2023-06-26T13:09:22;71.30;;;53.57;;
20004;SDS011;69160;45.498;-73.582;2023-06-26T13:11:50;72.63;;;53.83;;
20004;SDS011;69160;45.498;-73.582;2023-06-26T13:14:20;67.83;;;51.37;;
20004;SDS011;69160;45.498;-73.582;2023-06-26T13:16:46;68.50;;;52.20;;
20004;SDS011;69160;45.498;-73.582;2023-06-26T13:19:12;74.17;;;53.60;;
20004;SDS011;69160;45.498;-73.582;2023-06-26T13:21:38;70.23;;;52.67;;
20004;SDS011;69160;45.498;-73.582;2023-06-26T13:24:04;72.10;;;55.27;;
20004;SDS011;69160;45.498;-73.582;2023-06-26T13:26:31;75.67;;;55.77;;
20004;SDS011;69160;45.498;-73.582;2023-06-26T13:28:57;70.50;;;53.50;;
20004;SDS011;69160;45.498;-73.582;2023-06-26T13:31:24;71.10;;;53.27;;
20004;SDS011;69160;45.498;-73.582;2023-06-26T13:33:50;71.30;;;52.50;;
20004;SDS011;69160;45.498;-73.582;2023-06-26T13:36:19;79.37;;;54.97;;
20004;SDS011;69160;45.498;-73.582;2023-06-26T13:38:46;70.03;;;53.40;;
20004;SDS011;69160;45.498;-73.582;2023-06-26T13:41:15;73.07;;;53.00;;
20004;SDS011;69160;45.498;-73.582;2023-06-26T13:43:41;72.97;;;52.93;;
20004;SDS011;69160;45.498;-73.582;2023-06-26T13:46:07;74.03;;;52.03;;
20004;SDS011;69160;45.498;-73.582;2023-06-26T13:48:34;68.00;;;53.17;;
20004;SDS011;69160;45.498;-73.582;2023-06-26T13:51:00;69.20;;;52.77;;
20004;SDS011;69160;45.498;-73.582;2023-06-26T13:53:26;69.70;;;53.13;;
20004;SDS011;69160;45.498;-73.582;2023-06-26T13:55:52;71.70;;;54.10;;
20004;SDS011;69160;45.498;-73.582;2023-06-26T13:58:18;71.30;;;53.50;;
20004;SDS011;69160;45.498;-73.582;2023-06-26T14:00:46;71.33;;;55.10;;
20004;SDS011;69160;45.498;-73.582;2023-06-26T14:03:13;77.40;;;55.40;;
20004;SDS011;69160;45.498;-73.582;2023-06-26T14:05:39;75.60;;;53.20;;
20004;SDS011;69160;45.498;-73.582;2023-06-26T14:08:07;69.83;;;53.07;;